createdAt,value
2022-12-01T00:01:20.815Z,12.20
2022-12-01T00:03:48.600Z,12.85
2022-12-01T00:06:18.778Z,11.40
2022-12-01T00:09:06.497Z,11.32
2022-12-01T00:11:35.549Z,11.02
2022-12-01T00:14:03.502Z,10.48
2022-12-01T00:16:31.325Z,10.18
2022-12-01T00:18:58.911Z,10.45
2022-12-01T00:21:26.870Z,10.68
2022-12-01T00:23:56.429Z,10.60
2022-12-01T00:26:26.843Z,10.55
2022-12-01T00:28:56.792Z,10.63
2022-12-01T00:31:24.717Z,12.73
2022-12-01T00:33:52.169Z,11.13
2022-12-01T00:36:19.921Z,10.48
2022-12-01T00:38:47.118Z,9.60
2022-12-01T00:41:14.459Z,10.43
2022-12-01T00:43:41.814Z,9.60
2022-12-01T00:46:09.272Z,9.20
2022-12-01T00:48:36.594Z,10.07
2022-12-01T00:51:04.494Z,11.20
2022-12-01T00:53:31.804Z,11.27
2022-12-01T00:55:59.148Z,11.50
2022-12-01T00:58:26.388Z,10.73
2022-12-01T01:00:59.068Z,9.90
2022-12-01T01:03:27.679Z,10.63
2022-12-01T01:05:55.120Z,10.45
2022-12-01T01:08:22.488Z,10.82
2022-12-01T01:10:49.895Z,10.00
2022-12-01T01:13:17.273Z,9.95
2022-12-01T01:15:44.524Z,8.57
2022-12-01T01:18:12.716Z,9.35
2022-12-01T01:20:39.910Z,8.75
2022-12-01T01:23:07.288Z,9.27
2022-12-01T01:25:34.624Z,9.90
2022-12-01T01:28:01.923Z,9.88
2022-12-01T01:30:29.165Z,10.25
2022-12-01T01:32:56.540Z,10.10
2022-12-01T01:35:23.825Z,10.07
2022-12-01T01:37:51.843Z,10.13
2022-12-01T01:40:19.211Z,9.93
2022-12-01T01:42:46.447Z,10.05
2022-12-01T01:45:25.968Z,11.02
2022-12-01T01:47:55.541Z,9.95
2022-12-01T01:50:25.630Z,10.13
2022-12-01T01:53:02.724Z,10.38
2022-12-01T01:55:33.787Z,9.73
2022-12-01T01:58:04.476Z,10.02
2022-12-01T02:00:31.751Z,9.80
2022-12-01T02:03:00.219Z,10.20
2022-12-01T02:05:30.905Z,9.50
2022-12-01T02:08:00.154Z,9.60
2022-12-01T02:11:01.641Z,10.25
2022-12-01T02:13:45.105Z,10.77
2022-12-01T02:16:36.680Z,10.40
2022-12-01T02:19:52.048Z,11.57
2022-12-01T02:22:32.007Z,11.27
2022-12-01T02:25:11.548Z,10.93
2022-12-01T02:27:44.700Z,11.50
2022-12-01T02:30:17.915Z,11.73
2022-12-01T02:32:52.166Z,11.45
2022-12-01T02:35:47.732Z,12.60
2022-12-01T02:38:53.437Z,13.32
2022-12-01T02:41:30.436Z,11.52
2022-12-01T02:44:08.911Z,13.30
2022-12-01T02:46:44.371Z,12.20
2022-12-01T02:49:17.655Z,12.73
2022-12-01T02:51:45.959Z,12.50
2022-12-01T02:54:15.080Z,11.27
2022-12-01T02:56:45.054Z,11.68
2022-12-01T02:59:15.087Z,12.25
2022-12-01T03:01:46.012Z,12.07
2022-12-01T03:04:38.982Z,12.27
2022-12-01T03:07:44.067Z,12.25
2022-12-01T03:10:42.562Z,13.05
2022-12-01T03:13:17.924Z,12.70
2022-12-01T03:16:06.228Z,12.05
2022-12-01T03:18:45.944Z,11.80
2022-12-01T03:21:23.131Z,12.00
2022-12-01T03:24:01.145Z,12.20
2022-12-01T03:26:32.595Z,11.98
2022-12-01T03:29:08.198Z,12.30
2022-12-01T03:31:42.550Z,11.48
2022-12-01T03:34:23.196Z,11.60
2022-12-01T03:36:57.874Z,10.80
2022-12-01T03:39:32.302Z,11.25
2022-12-01T03:42:08.758Z,11.05
2022-12-01T03:44:45.476Z,9.45
2022-12-01T03:49:43.435Z,10.80
2022-12-01T03:52:23.554Z,10.68
2022-12-01T03:55:09.365Z,9.57
2022-12-01T03:57:44.098Z,10.55
2022-12-01T04:00:13.530Z,10.93
2022-12-01T04:02:41.396Z,10.98
2022-12-01T04:05:11.807Z,10.32
2022-12-01T04:07:39.762Z,10.10
2022-12-01T04:10:08.006Z,11.45
2022-12-01T04:12:35.672Z,11.25
2022-12-01T04:15:10.149Z,11.32
2022-12-01T04:17:37.537Z,11.20
2022-12-01T04:20:06.930Z,11.38
2022-12-01T04:22:34.330Z,10.77
2022-12-01T04:25:01.729Z,11.25
2022-12-01T04:27:29.075Z,10.77
2022-12-01T04:29:56.214Z,10.32
2022-12-01T04:32:23.628Z,11.02
2022-12-01T04:34:51.003Z,10.20
2022-12-01T04:37:19.032Z,10.40
2022-12-01T04:39:46.538Z,11.13
2022-12-01T04:42:13.920Z,11.68
2022-12-01T04:44:41.078Z,9.93
2022-12-01T04:47:08.504Z,10.73
2022-12-01T04:49:37.158Z,10.25
2022-12-01T04:52:04.691Z,10.23
2022-12-01T04:54:32.014Z,9.75
2022-12-01T04:56:59.149Z,10.35
2022-12-01T04:59:26.445Z,10.07
2022-12-01T05:01:53.765Z,9.45
2022-12-01T05:04:21.241Z,9.45
2022-12-01T05:06:48.655Z,9.68
2022-12-01T05:09:17.705Z,9.45
2022-12-01T05:11:45.391Z,8.95
2022-12-01T05:14:12.952Z,9.32
2022-12-01T05:16:40.362Z,8.75
2022-12-01T05:19:26.279Z,8.75
2022-12-01T05:21:54.014Z,9.25
2022-12-01T05:24:21.515Z,7.80
2022-12-01T05:26:49.084Z,8.27
2022-12-01T05:29:16.445Z,8.93
2022-12-01T05:31:45.539Z,7.97
2022-12-01T05:34:13.246Z,8.25
2022-12-01T05:36:40.473Z,8.85
2022-12-01T05:39:07.807Z,8.30
2022-12-01T05:41:35.190Z,7.60
2022-12-01T05:44:02.641Z,8.48
2022-12-01T05:46:29.795Z,8.15
2022-12-01T05:48:57.206Z,8.05
2022-12-01T05:51:24.380Z,8.32
2022-12-01T05:53:51.590Z,7.70
2022-12-01T05:56:18.827Z,8.85
2022-12-01T05:58:46.132Z,7.60
2022-12-01T06:01:13.467Z,8.32
2022-12-01T06:03:40.776Z,8.13
2022-12-01T06:06:08.119Z,8.43
2022-12-01T06:08:35.503Z,8.93
2022-12-01T06:11:03.116Z,8.95
2022-12-01T06:13:30.323Z,8.98
2022-12-01T06:16:03.164Z,8.27
2022-12-01T06:18:33.437Z,8.07
2022-12-01T06:21:01.467Z,8.10
2022-12-01T06:23:30.508Z,7.47
2022-12-01T06:25:58.812Z,8.43
2022-12-01T06:28:26.065Z,8.20
2022-12-01T06:30:56.634Z,7.35
2022-12-01T06:33:28.512Z,8.02
2022-12-01T06:36:00.299Z,8.43
2022-12-01T06:38:31.015Z,8.23
2022-12-01T06:40:58.332Z,8.63
2022-12-01T06:43:25.559Z,8.43
2022-12-01T06:45:56.439Z,8.88
2022-12-01T06:48:28.354Z,7.88
2022-12-01T06:51:00.292Z,8.27
2022-12-01T06:53:28.719Z,8.30
2022-12-01T06:56:04.414Z,8.05
2022-12-01T06:58:32.324Z,8.15
2022-12-01T07:01:00.292Z,8.15
2022-12-01T07:03:27.569Z,8.48
2022-12-01T07:05:59.404Z,8.65
2022-12-01T07:08:27.570Z,7.80
2022-12-01T07:11:07.572Z,7.63
2022-12-01T07:13:35.462Z,8.45
2022-12-01T07:16:03.560Z,7.60
2022-12-01T07:18:32.244Z,7.82
2022-12-01T07:21:01.403Z,7.22
2022-12-01T07:23:28.783Z,7.90
2022-12-01T07:26:06.772Z,7.50
2022-12-01T07:28:34.124Z,7.88
2022-12-01T07:31:09.619Z,8.45
2022-12-01T07:33:37.115Z,7.68
2022-12-01T07:36:05.351Z,8.07
2022-12-01T07:38:34.547Z,8.25
2022-12-01T07:41:11.109Z,8.35
2022-12-01T07:43:39.340Z,9.43
2022-12-01T07:46:22.589Z,9.23
2022-12-01T07:48:51.961Z,7.60
2022-12-01T07:51:19.983Z,7.85
2022-12-01T07:53:49.343Z,7.55
2022-12-01T07:58:44.300Z,8.35
2022-12-01T08:01:13.189Z,7.60
2022-12-01T08:03:41.258Z,9.35
2022-12-01T08:33:20.843Z,10.05
2022-12-01T08:56:19.630Z,9.32
2022-12-01T08:58:47.345Z,9.85
2022-12-01T09:01:16.813Z,9.90
2022-12-01T09:03:44.643Z,10.07
2022-12-01T09:06:15.346Z,12.07
2022-12-01T09:08:43.550Z,12.35
2022-12-01T09:11:14.135Z,11.70
2022-12-01T09:13:43.300Z,13.20
2022-12-01T09:16:13.304Z,12.15
2022-12-01T09:18:42.396Z,8.68
2022-12-01T09:21:14.501Z,9.30
2022-12-01T09:23:41.797Z,9.57
2022-12-01T09:26:13.411Z,8.07
2022-12-01T09:28:41.219Z,12.15
2022-12-01T09:31:11.618Z,11.40
2022-12-01T09:33:39.696Z,10.45
2022-12-01T09:36:08.626Z,7.63
2022-12-01T09:38:37.779Z,7.05
2022-12-01T09:41:18.078Z,6.03
2022-12-01T09:44:15.675Z,7.35
2022-12-01T09:46:49.265Z,7.20
2022-12-01T09:49:39.492Z,7.53
2022-12-01T09:52:12.104Z,8.43
2022-12-01T09:54:39.690Z,6.85
2022-12-01T09:57:16.404Z,5.75
2022-12-01T09:59:45.489Z,6.22
2022-12-01T10:02:51.028Z,6.93
2022-12-01T10:05:24.604Z,7.53
2022-12-01T10:08:15.794Z,6.95
2022-12-01T10:10:47.106Z,5.82
2022-12-01T10:13:26.275Z,7.28
2022-12-01T10:15:53.512Z,8.10
2022-12-01T10:18:58.412Z,8.18
2022-12-01T10:21:38.172Z,8.63
2022-12-01T10:24:24.911Z,9.40
2022-12-01T10:26:59.516Z,9.35
2022-12-01T10:29:39.018Z,9.48
2022-12-01T10:32:13.807Z,8.60
2022-12-01T10:34:43.143Z,9.20
2022-12-01T10:37:18.479Z,7.47
2022-12-01T10:39:49.449Z,7.93
2022-12-01T10:42:50.105Z,8.10
2022-12-01T10:45:24.635Z,8.10
2022-12-01T10:48:15.520Z,7.72
2022-12-01T14:36:49.232Z,5.43
2022-12-01T14:39:40.735Z,6.88
2022-12-01T14:42:11.030Z,6.30
2022-12-01T14:44:44.381Z,6.63
2022-12-01T14:47:11.863Z,7.07
2022-12-01T14:50:02.876Z,6.85
2022-12-01T14:52:35.790Z,5.85
2022-12-01T14:55:07.444Z,6.70
2022-12-01T14:57:39.670Z,6.18
2022-12-01T15:00:13.596Z,6.72
2022-12-01T15:02:55.951Z,6.22
2022-12-01T22:36:43.324Z,9.45
2022-12-01T22:39:34.054Z,7.20
2022-12-01T22:42:08.076Z,8.80
2022-12-01T22:44:35.462Z,7.68
